Rouen Vallée de Seine Airport

LFOP · Seine-Maritime, Normandy, 法国

罗盘
风向 的 风向 170° Rouen Airport 5/23
风: 9 kt, 3 beaufort

6 kt

7 kt
改变
0 ft 1.000 2.000 3.000 4.000 5.000
Cloud Cloud Cloud Cloud Cloud Cloud Cloud Cloud
OVC 4.100
METAR LFOP 042130Z AUTO 17009KT 9999 OVC041 07/02 Q1010

METAR Rouen Airport - LFOP/URO

Rouen Airport是,法国中的中型机场。 该机场位于纬度49,38525和经度1,17620。 该机场有一条跑道: 5/23. 本场的ICAO机场代码为LFOP。 该机场的IATA代码为URO。 机场在Paris FIR中。

该航空气象观测是针对Rouen Airport在2024年3月4日 22:30, 当地时间进行的。

机场观察

风向为170°,速度为9 kt。

可见度为10 km 或者更多。

有乌云密布在4.100 ft的高度。 破损或更高的上限为4.100 ft。

温度为7 °C,阵风为3 °C。 露点为2 °C,相对湿度为71%。 海平面上的气压为1010 hPa (QNH)。

白天

今天,太阳从07:30升起,在18:43降落。 这适用于Rouen Airport,世界夏令时可能有所不同。 当地时间与世界标准时间之间的时差为+1 小时。 当前,没有夏令时有效。

公司介绍

在这个机场,你可以找到飞行俱乐部。 本场上唯一已知的公司是Aéro-Club de Rouen Normandie。

体会

到Vliegles.nl去找飞行课程,跳伞和其他飞行体验。 浏览页面,了解Rouen Airport附近所有可用的活动。 你也可以使用搜索功能来寻找你所在地附近的特定飞行课程、跳伞或其他飞行体验。

跑道

Id 标题 侧风 逆风 侧风 %
5/23 041°-221° 7 kt 6 kt 78 %

逆风成分最大的方向会被突出显示,并用于横风计算。 这并不一定意味着这个方向在使用。

乌云

4.100 ft OVC 乌云密布

温度 & 天气

温度 7 °C
露点 2 °C
相对湿度 71%
风寒 3 °C
Kp-index 1 (0-9)

白天

日出
07:30 (8:33)
中午
13:06
日落
18:43

小工具

你想在你的网站上有一个关于Rouen Airport的当前航空天气(METAR)的小部件吗?

显示HTML代码
?>